createdAt,value
2023-01-11T00:01:52.790Z,7.97
2023-01-11T00:04:19.042Z,8.02
2023-01-11T00:06:45.322Z,7.96
2023-01-11T00:09:11.555Z,8.02
2023-01-11T00:11:37.684Z,7.96
2023-01-11T00:14:03.942Z,7.92
2023-01-11T00:16:30.395Z,7.91
2023-01-11T00:18:56.570Z,7.85
2023-01-11T00:21:22.748Z,7.77
2023-01-11T00:23:48.939Z,7.82
2023-01-11T00:26:15.150Z,7.87
2023-01-11T00:28:41.320Z,7.85
2023-01-11T00:31:07.583Z,7.82
2023-01-11T00:33:33.778Z,7.83
2023-01-11T00:35:59.948Z,7.82
2023-01-11T00:38:26.152Z,7.80
2023-01-11T00:40:52.322Z,7.75
2023-01-11T00:43:18.521Z,7.69
2023-01-11T00:45:44.665Z,7.73
2023-01-11T00:48:10.907Z,7.71
2023-01-11T00:50:37.069Z,7.69
2023-01-11T00:53:03.460Z,7.65
2023-01-11T00:55:29.636Z,7.65
2023-01-11T00:57:55.919Z,7.58
2023-01-11T01:00:22.214Z,7.56
2023-01-11T01:02:48.479Z,7.47
2023-01-11T01:05:14.767Z,7.44
2023-01-11T01:07:41.010Z,7.41
2023-01-11T01:10:07.206Z,7.35
2023-01-11T01:12:33.381Z,7.36
2023-01-11T01:14:59.595Z,7.32
2023-01-11T01:17:25.781Z,7.27
2023-01-11T01:19:51.971Z,7.23
2023-01-11T01:22:18.174Z,7.24
2023-01-11T01:24:44.449Z,7.21
2023-01-11T01:27:10.630Z,7.24
2023-01-11T01:29:36.864Z,7.21
2023-01-11T01:32:03.034Z,7.24
2023-01-11T01:34:29.202Z,7.20
2023-01-11T01:36:55.400Z,7.25
2023-01-11T01:39:21.608Z,7.26
2023-01-11T01:41:47.756Z,7.26
2023-01-11T01:44:13.922Z,7.32
2023-01-11T01:46:40.167Z,7.27
2023-01-11T01:49:06.405Z,7.30
2023-01-11T01:51:32.551Z,7.29
2023-01-11T01:53:58.709Z,7.36
2023-01-11T01:56:33.650Z,7.44
2023-01-11T01:59:01.600Z,7.51
2023-01-11T02:01:43.958Z,7.77
2023-01-11T02:04:10.239Z,8.03
2023-01-11T02:06:36.484Z,8.14
2023-01-11T02:09:02.688Z,8.20
2023-01-11T02:11:28.884Z,8.31
2023-01-11T02:13:55.013Z,8.29
2023-01-11T02:16:21.271Z,8.31
2023-01-11T02:18:47.562Z,8.31
2023-01-11T02:21:13.744Z,8.30
2023-01-11T02:23:40.060Z,8.24
2023-01-11T02:26:06.228Z,8.29
2023-01-11T02:28:32.418Z,8.24
2023-01-11T02:30:58.652Z,8.26
2023-01-11T02:33:24.875Z,8.22
2023-01-11T02:35:51.039Z,8.25
2023-01-11T02:38:17.211Z,8.24
2023-01-11T02:40:43.446Z,8.22
2023-01-11T02:43:09.683Z,8.30
2023-01-11T02:45:35.907Z,8.34
2023-01-11T02:48:02.106Z,8.40
2023-01-11T02:50:28.389Z,8.38
2023-01-11T02:52:54.570Z,8.53
2023-01-11T02:55:20.800Z,8.55
2023-01-11T02:57:46.994Z,8.57
2023-01-11T03:00:13.286Z,8.60
2023-01-11T03:02:39.518Z,8.60
2023-01-11T03:05:05.757Z,8.63
2023-01-11T03:07:31.921Z,8.66
2023-01-11T03:09:58.141Z,8.66
2023-01-11T03:12:24.368Z,8.63
2023-01-11T03:14:50.553Z,8.65
2023-01-11T03:17:16.739Z,8.65
2023-01-11T03:19:43.914Z,8.64
2023-01-11T03:22:10.176Z,8.61
2023-01-11T03:24:36.386Z,8.62
2023-01-11T03:27:02.559Z,8.63
2023-01-11T03:29:28.767Z,8.67
2023-01-11T03:31:54.956Z,8.65
2023-01-11T03:34:21.172Z,8.62
2023-01-11T03:36:48.566Z,8.59
2023-01-11T03:39:14.744Z,8.52
2023-01-11T03:41:40.969Z,8.57
2023-01-11T03:44:07.323Z,8.53
2023-01-11T03:46:33.505Z,8.42
2023-01-11T03:48:59.711Z,8.46
2023-01-11T03:51:25.993Z,8.44
2023-01-11T03:53:52.216Z,8.41
2023-01-11T03:56:18.439Z,8.41
2023-01-11T03:58:44.678Z,8.45
2023-01-11T04:01:10.914Z,8.41
2023-01-11T04:03:37.207Z,8.46
2023-01-11T04:06:03.458Z,8.41
2023-01-11T04:08:29.612Z,8.38
2023-01-11T04:10:55.769Z,8.44
2023-01-11T04:13:21.957Z,8.39
2023-01-11T04:15:48.149Z,8.36
2023-01-11T04:18:14.438Z,8.45
2023-01-11T04:20:40.614Z,8.43
2023-01-11T04:23:06.753Z,8.50
2023-01-11T04:25:32.939Z,8.46
2023-01-11T04:27:59.095Z,8.52
2023-01-11T04:30:25.282Z,8.49
2023-01-11T04:32:51.494Z,8.54
2023-01-11T04:35:17.707Z,8.60
2023-01-11T04:37:43.899Z,8.62
2023-01-11T04:40:10.121Z,8.58
2023-01-11T04:42:36.309Z,8.62
2023-01-11T04:45:02.462Z,8.59
2023-01-11T04:47:28.694Z,8.56
2023-01-11T04:49:54.934Z,8.51
2023-01-11T04:52:21.123Z,8.54
2023-01-11T04:54:47.334Z,8.50
2023-01-11T04:57:13.528Z,8.45
2023-01-11T04:59:39.865Z,8.37
2023-01-11T05:02:06.099Z,8.30
2023-01-11T05:04:32.452Z,8.32
2023-01-11T05:06:58.728Z,8.24
2023-01-11T05:09:25.116Z,8.26
2023-01-11T05:11:51.286Z,8.28
2023-01-11T05:14:17.486Z,8.22
2023-01-11T05:16:43.730Z,8.18
2023-01-11T05:19:09.901Z,8.29
2023-01-11T05:21:36.095Z,8.32
2023-01-11T05:24:02.302Z,8.30
2023-01-11T05:26:28.495Z,8.23
2023-01-11T05:28:54.668Z,8.28
2023-01-11T05:31:20.837Z,8.34
2023-01-11T05:33:47.083Z,8.31
2023-01-11T05:36:13.505Z,8.35
2023-01-11T05:38:39.724Z,8.40
2023-01-11T05:41:05.942Z,8.44
2023-01-11T05:43:32.137Z,8.49
2023-01-11T05:45:58.362Z,8.61
2023-01-11T05:48:24.568Z,8.59
2023-01-11T05:50:50.718Z,8.73
2023-01-11T05:53:16.875Z,8.75
2023-01-11T05:55:43.037Z,8.78
2023-01-11T05:58:09.289Z,8.84
2023-01-11T06:00:35.489Z,8.96
2023-01-11T06:03:01.638Z,8.98
2023-01-11T06:05:27.926Z,9.04
2023-01-11T06:07:54.137Z,9.08
2023-01-11T06:10:20.324Z,9.12
2023-01-11T06:12:46.476Z,9.13
2023-01-11T06:15:12.645Z,9.07
2023-01-11T06:17:38.783Z,9.05
2023-01-11T06:20:04.951Z,9.02
2023-01-11T06:22:31.116Z,9.03
2023-01-11T06:24:57.291Z,9.09
2023-01-11T06:27:23.463Z,9.06
2023-01-11T06:29:52.477Z,9.16
2023-01-11T06:32:18.696Z,9.16
2023-01-11T06:34:44.892Z,9.21
2023-01-11T06:37:11.064Z,9.24
2023-01-11T06:39:37.201Z,9.30
2023-01-11T06:42:03.398Z,9.34
2023-01-11T06:44:29.528Z,9.30
2023-01-11T06:46:55.668Z,9.41
2023-01-11T06:49:21.880Z,9.38
2023-01-11T06:51:48.090Z,9.46
2023-01-11T06:54:14.260Z,9.62
2023-01-11T06:56:40.487Z,9.66
2023-01-11T06:59:06.688Z,9.72
2023-01-11T07:01:33.032Z,9.69
2023-01-11T07:03:59.283Z,9.78
2023-01-11T07:06:25.544Z,9.87
2023-01-11T07:08:51.673Z,9.90
2023-01-11T07:11:17.835Z,9.98
2023-01-11T07:13:44.024Z,9.99
2023-01-11T07:16:10.352Z,9.93
2023-01-11T07:18:36.639Z,9.93
2023-01-11T07:21:02.787Z,10.00
2023-01-11T07:23:28.918Z,10.03
2023-01-11T07:25:55.152Z,10.05
2023-01-11T07:28:21.353Z,10.09
2023-01-11T07:30:58.106Z,10.14
2023-01-11T07:33:24.653Z,10.15
2023-01-11T07:35:50.881Z,10.17
2023-01-11T07:38:17.066Z,10.16
2023-01-11T07:40:43.237Z,10.20
2023-01-11T07:43:09.445Z,10.22
2023-01-11T07:45:45.388Z,10.14
2023-01-11T07:48:12.271Z,10.20
2023-01-11T07:50:44.849Z,10.15
2023-01-11T07:53:11.412Z,10.11
2023-01-11T07:55:39.169Z,10.08
2023-01-11T07:58:05.365Z,10.20
2023-01-11T08:00:31.575Z,10.16
2023-01-11T08:02:57.911Z,10.18
2023-01-11T08:05:24.541Z,10.21
2023-01-11T08:07:50.733Z,10.16
2023-01-11T08:10:16.905Z,10.19
2023-01-11T08:12:43.084Z,10.22
2023-01-11T08:15:09.314Z,10.25
2023-01-11T08:17:35.454Z,10.31
2023-01-11T08:20:01.645Z,10.38
2023-01-11T08:22:27.824Z,10.36
2023-01-11T08:24:54.052Z,10.35
2023-01-11T08:27:20.224Z,10.40
2023-01-11T08:29:46.392Z,10.45
2023-01-11T08:32:12.544Z,10.45
2023-01-11T08:34:38.759Z,10.47
2023-01-11T08:37:04.944Z,10.47
2023-01-11T08:39:31.185Z,10.45
2023-01-11T08:42:00.150Z,10.39
2023-01-11T08:44:33.805Z,10.40
2023-01-11T08:47:00.820Z,10.40
2023-01-11T08:49:26.988Z,10.33
2023-01-11T08:51:53.171Z,10.40
2023-01-11T08:54:19.371Z,10.38
2023-01-11T08:56:45.564Z,10.42
2023-01-11T08:59:11.775Z,10.35
2023-01-11T09:01:37.979Z,10.36
2023-01-11T09:04:12.512Z,10.29
2023-01-11T09:06:49.549Z,10.31
2023-01-11T09:09:15.746Z,10.30
2023-01-11T09:11:41.949Z,10.32
2023-01-11T09:14:08.115Z,10.28
2023-01-11T09:16:34.352Z,10.32
2023-01-11T09:19:00.560Z,10.31
2023-01-11T09:21:26.674Z,10.31
2023-01-11T09:23:52.973Z,10.30
2023-01-11T09:26:19.132Z,10.31
2023-01-11T09:28:45.334Z,10.34
2023-01-11T09:31:11.614Z,10.40
2023-01-11T09:33:37.833Z,10.35
2023-01-11T09:36:04.026Z,10.36
2023-01-11T09:38:30.237Z,10.34
2023-01-11T09:40:56.464Z,10.30
2023-01-11T09:43:22.664Z,10.30
2023-01-11T09:45:48.832Z,10.26
2023-01-11T09:48:15.007Z,10.24
2023-01-11T09:50:41.224Z,10.27
2023-01-11T09:53:07.425Z,10.24
2023-01-11T09:55:33.624Z,10.21
2023-01-11T09:57:59.808Z,10.16
2023-01-11T10:00:26.115Z,10.21
2023-01-11T10:02:52.369Z,10.22
2023-01-11T10:05:18.616Z,10.24
2023-01-11T10:07:44.823Z,10.26
2023-01-11T10:18:31.762Z,10.28
2023-01-11T10:18:52.884Z,10.28
2023-01-11T10:21:15.588Z,10.25
2023-01-11T10:23:41.768Z,10.29
2023-01-11T10:26:07.910Z,10.25
2023-01-11T10:28:34.118Z,10.24
2023-01-11T10:31:00.306Z,10.22
2023-01-11T10:33:26.540Z,10.20
2023-01-11T10:35:52.736Z,10.16
2023-01-11T10:38:18.887Z,10.16
2023-01-11T10:40:45.049Z,10.15
2023-01-11T10:43:11.261Z,10.21
2023-01-11T10:45:37.579Z,10.23
2023-01-11T10:48:03.836Z,10.24
2023-01-11T10:50:30.039Z,10.22
2023-01-11T10:52:56.260Z,10.21
2023-01-11T10:55:22.470Z,10.24
2023-01-11T10:58:01.843Z,10.25
2023-01-11T11:00:30.116Z,10.25
2023-01-11T11:02:56.313Z,10.30
2023-01-11T11:05:22.502Z,10.33
2023-01-11T11:07:48.682Z,10.32
2023-01-11T11:10:14.878Z,10.29
2023-01-11T11:12:41.045Z,10.25
2023-01-11T11:15:07.216Z,10.23
2023-01-11T11:17:33.379Z,10.20
2023-01-11T11:19:59.575Z,10.22
2023-01-11T11:22:25.787Z,10.21
2023-01-11T11:24:52.010Z,10.22
2023-01-11T11:27:18.267Z,10.20
2023-01-11T11:29:44.515Z,10.17
2023-01-11T11:32:10.795Z,10.20
2023-01-11T11:34:36.992Z,10.27
2023-01-11T11:37:03.206Z,10.28
2023-01-11T11:39:29.430Z,10.35
2023-01-11T11:41:55.653Z,10.40
2023-01-11T11:44:21.906Z,10.43
2023-01-11T11:46:48.118Z,10.47
2023-01-11T11:49:14.332Z,10.43
2023-01-11T11:51:40.579Z,10.45
2023-01-11T11:54:06.782Z,10.43
2023-01-11T11:56:33.250Z,10.43
2023-01-11T11:58:59.541Z,10.45
2023-01-11T12:01:25.755Z,10.48
2023-01-11T12:03:52.099Z,10.45
2023-01-11T12:06:18.359Z,10.42
2023-01-11T12:08:44.762Z,10.41
2023-01-11T12:11:10.951Z,10.37
2023-01-11T12:13:37.166Z,10.36
2023-01-11T12:16:03.378Z,10.39
2023-01-11T12:18:29.601Z,10.35
2023-01-11T12:20:55.852Z,10.32
2023-01-11T12:23:25.192Z,10.39
2023-01-11T12:25:53.668Z,10.37
2023-01-11T12:28:19.852Z,10.39
2023-01-11T12:30:46.100Z,10.34
2023-01-11T12:33:12.369Z,10.34
2023-01-11T12:35:38.596Z,10.37
2023-01-11T12:38:04.821Z,10.39
2023-01-11T12:40:31.041Z,10.41
2023-01-11T12:42:57.260Z,10.45
2023-01-11T12:45:23.496Z,10.43
2023-01-11T12:47:49.868Z,10.49
2023-01-11T12:50:18.536Z,10.46
2023-01-11T12:52:44.790Z,10.40
2023-01-11T12:56:03.094Z,10.33
2023-01-11T12:58:09.512Z,10.27
2023-01-11T13:00:38.144Z,10.23
2023-01-11T13:03:06.226Z,10.20
2023-01-11T13:05:39.788Z,10.26
2023-01-11T13:08:13.148Z,10.27
2023-01-11T13:10:42.875Z,10.28
2023-01-11T13:13:10.303Z,10.18
2023-01-11T13:15:36.556Z,10.28
2023-01-11T13:18:02.768Z,10.36
2023-01-11T13:20:44.416Z,10.45
2023-01-11T13:23:18.430Z,10.53
2023-01-11T13:25:44.661Z,10.53
2023-01-11T13:28:13.592Z,10.50
2023-01-11T13:30:42.841Z,10.48
2023-01-11T13:33:09.009Z,10.57
2023-01-11T13:35:35.161Z,10.64
2023-01-11T13:38:01.364Z,10.77
2023-01-11T13:40:27.552Z,10.89
2023-01-11T13:42:53.725Z,10.94
2023-01-11T13:45:19.914Z,10.88
2023-01-11T13:47:46.117Z,10.92
2023-01-11T13:50:12.358Z,10.89
2023-01-11T13:52:38.576Z,10.83
2023-01-11T13:55:07.163Z,10.86
2023-01-11T13:57:35.098Z,10.89
2023-01-11T14:00:01.285Z,10.95
2023-01-11T14:02:27.478Z,10.98
2023-01-11T14:04:53.685Z,10.96
2023-01-11T14:07:19.910Z,10.93
2023-01-11T14:09:46.154Z,10.88
2023-01-11T14:12:12.304Z,10.91
2023-01-11T14:14:38.663Z,10.81
2023-01-11T14:17:04.886Z,10.80
2023-01-11T14:19:31.073Z,10.71
2023-01-11T14:21:57.388Z,10.69
2023-01-11T14:24:23.734Z,10.67
2023-01-11T14:26:50.186Z,10.64
2023-01-11T14:29:16.675Z,10.61
2023-01-11T14:31:42.918Z,10.61
2023-01-11T14:34:09.107Z,10.55
2023-01-11T14:36:35.307Z,10.61
2023-01-11T14:39:01.650Z,10.52
2023-01-11T14:41:27.816Z,10.48
2023-01-11T14:43:53.992Z,10.46
2023-01-11T14:46:20.279Z,10.42
2023-01-11T14:48:46.500Z,10.41
2023-01-11T14:51:23.954Z,10.29
2023-01-11T14:53:54.439Z,10.29
2023-01-11T14:56:20.705Z,10.27
2023-01-11T14:58:46.924Z,10.18
2023-01-11T15:01:13.110Z,10.14
2023-01-11T15:03:39.321Z,10.14
2023-01-11T15:06:05.658Z,10.13
2023-01-11T15:08:31.879Z,10.15
2023-01-11T15:10:58.066Z,10.12
2023-01-11T15:13:24.266Z,10.05
2023-01-11T15:15:50.462Z,10.00
2023-01-11T15:18:16.659Z,10.00
2023-01-11T15:20:42.865Z,10.04
2023-01-11T15:23:13.374Z,10.03
2023-01-11T15:25:39.732Z,9.98
2023-01-11T15:28:05.967Z,9.90
2023-01-11T15:30:32.153Z,9.92
2023-01-11T15:32:58.342Z,9.88
2023-01-11T15:35:24.697Z,9.82
2023-01-11T15:37:51.009Z,9.71
2023-01-11T15:40:17.276Z,9.74
2023-01-11T15:42:43.475Z,9.67
2023-01-11T15:45:09.689Z,9.60
2023-01-11T15:47:35.929Z,9.63
2023-01-11T15:50:02.100Z,9.59
2023-01-11T15:52:28.325Z,9.51
2023-01-11T15:54:54.712Z,9.53
2023-01-11T15:57:20.935Z,9.58
2023-01-11T15:59:47.109Z,9.59
2023-01-11T16:02:13.303Z,9.58
2023-01-11T16:04:39.534Z,9.53
2023-01-11T16:07:05.791Z,9.56
2023-01-11T16:09:33.157Z,9.70
2023-01-11T16:11:59.660Z,9.69
2023-01-11T16:14:25.808Z,9.62
2023-01-11T16:16:51.993Z,9.74
2023-01-11T16:19:18.200Z,9.70
2023-01-11T16:21:44.388Z,9.70
2023-01-11T16:24:10.601Z,9.64
2023-01-11T16:26:36.887Z,9.65
2023-01-11T16:29:03.107Z,9.76
2023-01-11T16:31:29.305Z,9.72
2023-01-11T16:33:55.509Z,9.60
2023-01-11T16:36:21.867Z,9.57
2023-01-11T16:38:48.074Z,9.53
2023-01-11T16:41:14.230Z,9.45
2023-01-11T16:43:40.427Z,9.41
2023-01-11T16:46:06.778Z,9.30
2023-01-11T16:48:33.012Z,9.24
2023-01-11T16:50:59.363Z,9.16
2023-01-11T16:53:25.618Z,9.06
2023-01-11T16:55:51.830Z,8.98
2023-01-11T16:58:18.013Z,8.88
2023-01-11T17:00:44.309Z,8.78
2023-01-11T17:03:10.493Z,8.70
2023-01-11T17:05:36.769Z,8.66
2023-01-11T17:08:02.957Z,8.76
2023-01-11T17:10:29.124Z,8.69
2023-01-11T17:12:55.337Z,8.60
2023-01-11T17:15:21.530Z,8.53
2023-01-11T17:17:47.710Z,8.43
2023-01-11T17:20:14.045Z,8.35
2023-01-11T17:22:40.341Z,8.32
2023-01-11T17:25:06.508Z,8.24
2023-01-11T17:27:32.704Z,8.16
2023-01-11T17:29:58.946Z,8.07
2023-01-11T17:32:25.148Z,7.96
2023-01-11T17:34:52.612Z,7.89
2023-01-11T17:37:18.877Z,7.82
2023-01-11T17:39:45.260Z,7.82
2023-01-11T17:42:11.430Z,7.86
2023-01-11T17:44:37.596Z,7.89
2023-01-11T17:47:03.805Z,7.87
2023-01-11T17:49:29.997Z,7.86
2023-01-11T17:51:56.195Z,7.93
2023-01-11T17:54:22.451Z,7.86
2023-01-11T17:56:54.997Z,7.69
2023-01-11T17:59:22.328Z,7.60
2023-01-11T18:01:48.531Z,7.53
2023-01-11T18:04:19.244Z,7.59
2023-01-11T18:06:45.534Z,7.61
2023-01-11T18:09:11.702Z,7.53
2023-01-11T18:11:38.138Z,7.42
2023-01-11T18:14:04.333Z,7.29
2023-01-11T18:16:30.612Z,7.27
2023-01-11T18:18:56.857Z,7.23
2023-01-11T18:21:23.028Z,7.38
2023-01-11T18:23:49.242Z,7.46
2023-01-11T18:26:15.652Z,7.65
2023-01-11T18:28:41.840Z,7.73
2023-01-11T18:31:08.071Z,7.87
2023-01-11T18:33:34.361Z,7.82
2023-01-11T18:36:00.688Z,7.86
2023-01-11T18:38:26.937Z,7.94
2023-01-11T18:40:53.150Z,7.92
2023-01-11T18:43:19.361Z,7.91
2023-01-11T18:45:45.699Z,7.82
2023-01-11T18:48:12.126Z,7.78
2023-01-11T18:50:39.566Z,7.80
2023-01-11T18:53:05.900Z,7.72
2023-01-11T18:55:32.136Z,7.61
2023-01-11T18:58:01.498Z,7.54
2023-01-11T19:00:27.680Z,7.39
2023-01-11T19:02:54.068Z,7.37
2023-01-11T19:05:20.441Z,7.20
2023-01-11T19:07:46.653Z,7.30
2023-01-11T19:10:12.833Z,7.17
2023-01-11T19:12:39.045Z,7.12
2023-01-11T19:15:05.265Z,7.18
2023-01-11T19:17:31.416Z,7.25
2023-01-11T19:19:57.667Z,7.27
2023-01-11T19:22:26.472Z,7.39
2023-01-11T19:24:53.277Z,7.41
2023-01-11T19:27:19.489Z,7.46
2023-01-11T19:29:45.827Z,7.41
2023-01-11T19:32:12.088Z,7.42
2023-01-11T19:34:38.514Z,7.49
2023-01-11T19:37:04.867Z,7.63
2023-01-11T19:39:31.153Z,7.64
2023-01-11T19:41:57.445Z,7.65
2023-01-11T19:44:23.866Z,7.59
2023-01-11T19:46:56.758Z,7.75
2023-01-11T19:49:26.627Z,7.88
2023-01-11T19:51:54.790Z,7.93
2023-01-11T19:54:20.967Z,7.96
2023-01-11T19:56:47.427Z,8.05
2023-01-11T19:59:22.608Z,8.04
2023-01-11T20:01:48.861Z,7.98
2023-01-11T20:04:24.353Z,7.93
2023-01-11T20:06:50.550Z,8.02
2023-01-11T20:09:16.843Z,7.97
2023-01-11T20:11:43.450Z,7.98
2023-01-11T20:14:09.691Z,7.94
2023-01-11T20:16:35.911Z,8.02
2023-01-11T20:19:02.122Z,7.99
2023-01-11T20:21:28.352Z,8.03
2023-01-11T20:23:54.524Z,8.02
2023-01-11T20:26:20.790Z,8.10
2023-01-11T20:28:47.029Z,8.11
2023-01-11T20:31:13.350Z,8.13
2023-01-11T20:33:39.624Z,8.20
2023-01-11T20:36:05.917Z,8.20
2023-01-11T20:38:32.070Z,8.12
2023-01-11T20:40:58.269Z,8.02
2023-01-11T20:43:24.488Z,7.95
2023-01-11T20:45:50.920Z,7.94
2023-01-11T20:48:17.081Z,7.78
2023-01-11T20:50:43.285Z,7.68
2023-01-11T20:53:09.540Z,7.67
2023-01-11T20:55:35.838Z,7.51
2023-01-11T20:58:02.043Z,7.42
2023-01-11T21:00:28.215Z,7.41
2023-01-11T21:02:54.686Z,7.38
2023-01-11T21:05:20.898Z,7.34
2023-01-11T21:07:47.125Z,7.32
2023-01-11T21:10:13.376Z,7.27
2023-01-11T21:12:39.593Z,7.13
2023-01-11T21:15:05.878Z,7.25
2023-01-11T21:17:32.098Z,7.30
2023-01-11T21:19:58.269Z,7.34
2023-01-11T21:22:24.531Z,7.41
2023-01-11T21:24:50.785Z,7.45
2023-01-11T21:27:17.300Z,7.47
2023-01-11T21:29:43.552Z,7.46
2023-01-11T21:32:09.812Z,7.37
2023-01-11T21:34:36.062Z,7.33
2023-01-11T21:37:02.299Z,7.31
2023-01-11T21:39:28.478Z,7.30
2023-01-11T21:41:54.871Z,7.29
2023-01-11T21:44:21.064Z,7.22
2023-01-11T21:46:47.341Z,7.16
2023-01-11T21:49:13.631Z,7.07
2023-01-11T21:51:39.950Z,6.97
2023-01-11T21:54:06.148Z,6.88
2023-01-11T21:56:32.313Z,6.96
2023-01-11T21:58:58.474Z,6.82
2023-01-11T22:01:24.714Z,6.81
2023-01-11T22:03:51.243Z,6.89
2023-01-11T22:06:17.550Z,6.88
2023-01-11T22:08:43.831Z,6.79
2023-01-11T22:11:10.035Z,6.80
2023-01-11T22:13:36.412Z,6.82
2023-01-11T22:16:02.714Z,6.82
2023-01-11T22:18:28.915Z,6.82
2023-01-11T22:20:55.106Z,6.81
2023-01-11T22:23:21.469Z,6.72
2023-01-11T22:25:47.897Z,6.76
2023-01-11T22:28:14.106Z,6.86
2023-01-11T22:30:40.284Z,6.86
2023-01-11T22:33:06.520Z,6.93
2023-01-11T22:35:32.720Z,6.82
2023-01-11T22:37:58.939Z,6.81
2023-01-11T22:40:25.081Z,6.80
2023-01-11T22:42:51.513Z,6.82
2023-01-11T22:45:17.705Z,6.92
2023-01-11T22:47:43.951Z,6.95
2023-01-11T22:50:10.129Z,7.08
2023-01-11T22:52:36.253Z,6.97
2023-01-11T22:55:02.483Z,7.08
2023-01-11T22:57:28.656Z,7.12
2023-01-11T22:59:55.055Z,7.00
2023-01-11T23:02:21.328Z,6.94
2023-01-11T23:04:47.521Z,6.79
2023-01-11T23:07:13.841Z,6.69
2023-01-11T23:09:40.049Z,6.74
2023-01-11T23:12:06.381Z,6.84
2023-01-11T23:14:32.586Z,6.79
2023-01-11T23:16:58.866Z,6.88
2023-01-11T23:19:25.239Z,7.02
2023-01-11T23:21:51.437Z,7.09
2023-01-11T23:24:17.628Z,7.00
2023-01-11T23:26:43.934Z,7.04
2023-01-11T23:29:10.179Z,7.00
2023-01-11T23:31:36.459Z,7.00
2023-01-11T23:34:02.742Z,7.05
2023-01-11T23:36:28.922Z,7.11
2023-01-11T23:38:55.088Z,7.15
2023-01-11T23:41:21.302Z,7.22
2023-01-11T23:43:47.505Z,7.28
2023-01-11T23:46:13.832Z,7.21
2023-01-11T23:48:40.091Z,7.17
2023-01-11T23:51:06.267Z,7.17
2023-01-11T23:53:32.499Z,7.16
2023-01-11T23:55:58.734Z,7.09
2023-01-11T23:58:24.930Z,7.10
